SWA3611 KMDW-KPHL
Flight info
| Callsign | SWA3611 |
|---|---|
| Flight time | 1h 26m |
| Altitude | 35000 |
| Route | LEWKE ZIINE Q186 SPYDY EWC JST BOJID4 |
| Aircraft | B738/M-SADE2E3GIJ4RWZ/LB1D1 |
Departure
| Time | 2026-05-07 20:51 |
|---|---|
| Airport | Chicago Midway International Airport (KMDW) |
Arrival
| Time | 2026-05-07 22:18 |
|---|---|
| Airport | Philadelphia International Airport (KPHL) |
| Time | Latitude | Longitude | Altitude | Speed | Heading |
|---|---|---|---|---|---|
| 2026-05-07 20:07 | 41.78624 | -87.74648 | 610 ft | 0 kts | 71° |
| 2026-05-07 20:07 | 41.78626 | -87.74639 | 628 ft | 0 kts | 71° |
| 2026-05-07 20:45 | 41.78621 | -87.74659 | 628 ft | 4 kts | 71° |
| 2026-05-07 20:45 | 41.78613 | -87.74689 | 628 ft | 3 kts | 71° |
| 2026-05-07 20:45 | 41.78601 | -87.74717 | 633 ft | 4 kts | 28° |
| 2026-05-07 20:45 | 41.78577 | -87.74722 | 628 ft | 4 kts | 343° |
| 2026-05-07 20:46 | 41.78553 | -87.74707 | 632 ft | 4 kts | 322° |
| 2026-05-07 20:46 | 41.78544 | -87.74697 | 628 ft | 2 kts | 314° |
| 2026-05-07 20:48 | 41.78566 | -87.74727 | 628 ft | 9 kts | 313° |
| 2026-05-07 20:49 | 41.78620 | -87.74778 | 631 ft | 10 kts | 343° |
| 2026-05-07 20:49 | 41.78688 | -87.74779 | 628 ft | 10 kts | 16° |
| 2026-05-07 20:49 | 41.78752 | -87.74716 | 628 ft | 13 kts | 43° |
| 2026-05-07 20:49 | 41.78834 | -87.74612 | 628 ft | 19 kts | 43° |
| 2026-05-07 20:50 | 41.78942 | -87.74476 | 632 ft | 23 kts | 43° |
| 2026-05-07 20:50 | 41.79052 | -87.74336 | 632 ft | 19 kts | 45° |
| 2026-05-07 20:50 | 41.79109 | -87.74268 | 634 ft | 8 kts | 28° |
| 2026-05-07 20:50 | 41.79170 | -87.74287 | 637 ft | 14 kts | 311° |
| 2026-05-07 20:51 | 41.79111 | -87.74420 | 630 ft | 25 kts | 223° |
| 2026-05-07 20:51 | 41.78810 | -87.74800 | 630 ft | 99 kts | 223° |
| 2026-05-07 20:51 | 41.78137 | -87.75645 | 681 ft | 160 kts | 224° |
| 2026-05-07 20:51 | 41.77282 | -87.76684 | 1408 ft | 173 kts | 223° |
| 2026-05-07 20:52 | 41.76435 | -87.77735 | 2469 ft | 175 kts | 225° |
| 2026-05-07 20:52 | 41.75373 | -87.78777 | 2744 ft | 207 kts | 198° |
| 2026-05-07 20:52 | 41.73874 | -87.78688 | 2954 ft | 234 kts | 158° |
| 2026-05-07 20:52 | 41.72543 | -87.77283 | 3304 ft | 255 kts | 124° |
| 2026-05-07 20:53 | 41.71927 | -87.75053 | 4061 ft | 261 kts | 95° |
| 2026-05-07 20:53 | 41.71988 | -87.72580 | 4842 ft | 270 kts | 86° |
| 2026-05-07 20:53 | 41.72181 | -87.70065 | 5560 ft | 280 kts | 84° |
| 2026-05-07 20:53 | 41.72403 | -87.67427 | 6241 ft | 289 kts | 84° |
| 2026-05-07 20:54 | 41.72617 | -87.64728 | 6999 ft | 294 kts | 85° |
| 2026-05-07 20:54 | 41.72821 | -87.61993 | 7810 ft | 297 kts | 85° |
| 2026-05-07 20:54 | 41.73012 | -87.59216 | 8613 ft | 301 kts | 86° |
| 2026-05-07 20:54 | 41.73198 | -87.56400 | 9350 ft | 306 kts | 86° |
| 2026-05-07 20:55 | 41.73385 | -87.53536 | 10061 ft | 311 kts | 85° |
| 2026-05-07 20:55 | 41.73573 | -87.50586 | 10483 ft | 329 kts | 84° |
| 2026-05-07 20:55 | 41.73771 | -87.47424 | 10671 ft | 352 kts | 84° |
| 2026-05-07 20:55 | 41.73977 | -87.44071 | 11018 ft | 368 kts | 84° |
| 2026-05-07 20:56 | 41.74185 | -87.40654 | 11618 ft | 375 kts | 83° |
| 2026-05-07 20:56 | 41.74396 | -87.37152 | 12297 ft | 379 kts | 83° |
| 2026-05-07 20:56 | 41.74606 | -87.33601 | 12972 ft | 384 kts | 83° |
| 2026-05-07 20:56 | 41.74819 | -87.30007 | 13599 ft | 390 kts | 83° |
| 2026-05-07 20:57 | 41.75034 | -87.26363 | 14223 ft | 395 kts | 84° |
| 2026-05-07 20:57 | 41.75251 | -87.22666 | 14841 ft | 400 kts | 84° |
| 2026-05-07 20:57 | 41.75469 | -87.18934 | 15449 ft | 405 kts | 84° |
| 2026-05-07 20:57 | 41.75689 | -87.15153 | 16042 ft | 410 kts | 84° |
| 2026-05-07 20:58 | 41.75909 | -87.11333 | 16645 ft | 414 kts | 84° |
| 2026-05-07 20:58 | 41.76129 | -87.07499 | 17172 ft | 419 kts | 85° |
| 2026-05-07 20:58 | 41.76297 | -87.03571 | 17694 ft | 424 kts | 88° |
| 2026-05-07 20:58 | 41.76369 | -86.99608 | 18260 ft | 428 kts | 89° |
| 2026-05-07 20:59 | 41.76402 | -86.95600 | 18797 ft | 432 kts | 90° |
| 2026-05-07 20:59 | 41.76426 | -86.91548 | 19312 ft | 436 kts | 90° |
| 2026-05-07 20:59 | 41.76454 | -86.87461 | 19817 ft | 441 kts | 90° |
| 2026-05-07 20:59 | 41.76490 | -86.83331 | 20298 ft | 446 kts | 89° |
| 2026-05-07 21:00 | 41.76531 | -86.79161 | 20737 ft | 451 kts | 90° |
| 2026-05-07 21:00 | 41.76575 | -86.74990 | 21222 ft | 455 kts | 90° |
| 2026-05-07 21:00 | 41.76622 | -86.70688 | 21681 ft | 459 kts | 90° |
| 2026-05-07 21:00 | 41.76667 | -86.66445 | 22117 ft | 463 kts | 90° |
| 2026-05-07 21:01 | 41.76710 | -86.62122 | 22556 ft | 467 kts | 90° |
| 2026-05-07 21:01 | 41.76753 | -86.57755 | 22974 ft | 471 kts | 90° |
| 2026-05-07 21:01 | 41.76795 | -86.53341 | 23381 ft | 475 kts | 90° |
| 2026-05-07 21:01 | 41.76834 | -86.48899 | 23772 ft | 479 kts | 90° |
| 2026-05-07 21:02 | 41.76872 | -86.44403 | 24150 ft | 484 kts | 90° |
| 2026-05-07 21:02 | 41.76908 | -86.39880 | 24515 ft | 488 kts | 90° |
| 2026-05-07 21:02 | 41.76944 | -86.35324 | 24879 ft | 491 kts | 90° |
| 2026-05-07 21:02 | 41.76978 | -86.30722 | 25259 ft | 494 kts | 90° |
| 2026-05-07 21:03 | 41.77019 | -86.26100 | 25590 ft | 498 kts | 90° |
| 2026-05-07 21:03 | 41.77069 | -86.21499 | 25893 ft | 503 kts | 90° |
| 2026-05-07 21:03 | 41.77123 | -86.16848 | 26618 ft | 495 kts | 89° |
| 2026-05-07 21:03 | 41.77177 | -86.12243 | 27017 ft | 497 kts | 87° |
| 2026-05-07 21:04 | 41.77229 | -86.07557 | 27105 ft | 506 kts | 88° |
| 2026-05-07 21:04 | 41.77279 | -86.02817 | 27317 ft | 511 kts | 88° |
| 2026-05-07 21:04 | 41.77326 | -85.98039 | 27658 ft | 514 kts | 88° |
| 2026-05-07 21:04 | 41.77370 | -85.93242 | 27977 ft | 516 kts | 88° |
| 2026-05-07 21:05 | 41.77412 | -85.88402 | 28236 ft | 520 kts | 88° |
| 2026-05-07 21:05 | 41.77450 | -85.83541 | 28447 ft | 524 kts | 88° |
| 2026-05-07 21:05 | 41.77487 | -85.78697 | 28681 ft | 527 kts | 88° |
| 2026-05-07 21:05 | 41.77524 | -85.73762 | 28925 ft | 531 kts | 88° |
| 2026-05-07 21:06 | 41.77558 | -85.68802 | 29149 ft | 534 kts | 89° |
| 2026-05-07 21:06 | 41.77589 | -85.63807 | 29373 ft | 537 kts | 89° |
| 2026-05-07 21:06 | 41.77617 | -85.58788 | 29567 ft | 541 kts | 89° |
| 2026-05-07 21:06 | 41.77644 | -85.53739 | 29768 ft | 544 kts | 89° |
| 2026-05-07 21:07 | 41.77672 | -85.48657 | 30010 ft | 546 kts | 89° |
| 2026-05-07 21:07 | 41.77696 | -85.43563 | 30307 ft | 547 kts | 89° |
| 2026-05-07 21:07 | 41.77716 | -85.38475 | 30668 ft | 546 kts | 89° |
| 2026-05-07 21:07 | 41.77735 | -85.33393 | 31062 ft | 544 kts | 90° |
| 2026-05-07 21:08 | 41.77752 | -85.28326 | 31367 ft | 545 kts | 90° |
| 2026-05-07 21:08 | 41.77767 | -85.23237 | 31588 ft | 547 kts | 90° |
| 2026-05-07 21:08 | 41.77781 | -85.18130 | 31852 ft | 548 kts | 90° |
| 2026-05-07 21:08 | 41.77795 | -85.13027 | 32142 ft | 547 kts | 90° |
| 2026-05-07 21:09 | 41.77809 | -85.07928 | 32412 ft | 547 kts | 90° |
| 2026-05-07 21:09 | 41.77821 | -85.02828 | 32655 ft | 548 kts | 90° |
| 2026-05-07 21:09 | 41.77830 | -84.97709 | 32897 ft | 549 kts | 90° |
| 2026-05-07 21:09 | 41.77836 | -84.92586 | 33160 ft | 549 kts | 91° |
| 2026-05-07 21:10 | 41.77840 | -84.87537 | 33446 ft | 549 kts | 91° |
| 2026-05-07 21:10 | 41.77841 | -84.82429 | 33732 ft | 548 kts | 91° |
| 2026-05-07 21:10 | 41.77839 | -84.77313 | 33916 ft | 550 kts | 91° |
| 2026-05-07 21:10 | 41.77836 | -84.72193 | 34128 ft | 550 kts | 91° |
| 2026-05-07 21:11 | 41.77831 | -84.67059 | 34409 ft | 549 kts | 91° |
| 2026-05-07 21:11 | 41.77823 | -84.61957 | 34734 ft | 547 kts | 91° |
| 2026-05-07 21:11 | 41.77801 | -84.51756 | 34954 ft | 550 kts | 91° |
| 2026-05-07 21:12 | 41.77772 | -84.41509 | 34958 ft | 548 kts | 92° |
| 2026-05-07 21:12 | 41.77730 | -84.31332 | 34960 ft | 544 kts | 92° |
| 2026-05-07 21:13 | 41.77680 | -84.21226 | 34960 ft | 541 kts | 92° |
| 2026-05-07 21:13 | 41.77623 | -84.11216 | 34969 ft | 539 kts | 92° |
| 2026-05-07 21:14 | 41.77556 | -84.01168 | 34980 ft | 539 kts | 92° |
| 2026-05-07 21:14 | 41.77482 | -83.91108 | 34971 ft | 540 kts | 92° |
| 2026-05-07 21:15 | 41.77399 | -83.81016 | 34970 ft | 542 kts | 92° |
| 2026-05-07 21:15 | 41.77306 | -83.70883 | 34970 ft | 545 kts | 92° |
| 2026-05-07 21:16 | 41.77205 | -83.60767 | 34963 ft | 547 kts | 92° |
| 2026-05-07 21:16 | 41.76815 | -83.50598 | 34966 ft | 547 kts | 100° |
| 2026-05-07 21:17 | 41.75802 | -83.40491 | 34962 ft | 548 kts | 101° |
| 2026-05-07 21:17 | 41.74743 | -83.30358 | 34972 ft | 550 kts | 101° |
| 2026-05-07 21:18 | 41.73726 | -83.20205 | 34973 ft | 551 kts | 101° |
| 2026-05-07 21:18 | 41.72721 | -83.10028 | 34961 ft | 551 kts | 101° |
| 2026-05-07 21:19 | 41.71713 | -82.99914 | 34961 ft | 550 kts | 101° |
| 2026-05-07 21:19 | 41.70684 | -82.89760 | 34961 ft | 549 kts | 101° |
| 2026-05-07 21:20 | 41.69652 | -82.79631 | 34956 ft | 548 kts | 101° |
| 2026-05-07 21:20 | 41.68612 | -82.69538 | 34964 ft | 546 kts | 101° |
| 2026-05-07 21:21 | 41.67573 | -82.59541 | 34963 ft | 545 kts | 101° |
| 2026-05-07 21:21 | 41.66512 | -82.49431 | 34961 ft | 544 kts | 101° |
| 2026-05-07 21:22 | 41.65461 | -82.39492 | 34965 ft | 543 kts | 101° |
| 2026-05-07 21:22 | 41.64394 | -82.29497 | 34962 ft | 543 kts | 101° |
| 2026-05-07 21:23 | 41.63318 | -82.19502 | 34965 ft | 542 kts | 102° |
| 2026-05-07 21:23 | 41.62235 | -82.09516 | 34964 ft | 542 kts | 102° |
| 2026-05-07 21:24 | 41.61145 | -81.99552 | 34965 ft | 542 kts | 102° |
| 2026-05-07 21:24 | 41.60045 | -81.89570 | 34954 ft | 543 kts | 102° |
| 2026-05-07 21:25 | 41.58937 | -81.79600 | 34953 ft | 543 kts | 102° |
| 2026-05-07 21:25 | 41.57820 | -81.69632 | 34955 ft | 542 kts | 102° |
| 2026-05-07 21:26 | 41.56694 | -81.59660 | 34953 ft | 543 kts | 102° |
| 2026-05-07 21:26 | 41.55561 | -81.49759 | 34953 ft | 543 kts | 104° |
| 2026-05-07 21:27 | 41.54661 | -81.44885 | 34944 ft | 536 kts | 115° |
| 2026-05-07 21:27 | 41.53287 | -81.40303 | 34959 ft | 528 kts | 123° |
| 2026-05-07 21:27 | 41.49429 | -81.32172 | 34963 ft | 512 kts | 137° |
| 2026-05-07 21:28 | 41.44935 | -81.24750 | 34951 ft | 514 kts | 138° |
| 2026-05-07 21:28 | 41.40428 | -81.17296 | 34946 ft | 518 kts | 138° |
| 2026-05-07 21:29 | 41.36697 | -81.11049 | 34951 ft | 520 kts | 137° |
| 2026-05-07 21:29 | 41.31458 | -81.02239 | 34939 ft | 522 kts | 137° |
| 2026-05-07 21:30 | 41.26943 | -80.94661 | 34945 ft | 523 kts | 137° |
| 2026-05-07 21:30 | 41.23150 | -80.88316 | 34935 ft | 523 kts | 137° |
| 2026-05-07 21:31 | 41.18619 | -80.80753 | 34926 ft | 522 kts | 137° |
| 2026-05-07 21:31 | 41.14096 | -80.73227 | 34918 ft | 521 kts | 138° |
| 2026-05-07 21:32 | 41.09582 | -80.65737 | 34921 ft | 519 kts | 138° |
| 2026-05-07 21:32 | 41.05095 | -80.58307 | 34914 ft | 518 kts | 138° |
| 2026-05-07 21:33 | 41.00591 | -80.50871 | 34923 ft | 516 kts | 138° |
| 2026-05-07 21:33 | 40.96094 | -80.43463 | 34931 ft | 516 kts | 138° |
| 2026-05-07 21:34 | 40.91592 | -80.36062 | 34919 ft | 517 kts | 138° |
| 2026-05-07 21:34 | 40.87102 | -80.28696 | 34920 ft | 518 kts | 138° |
| 2026-05-07 21:35 | 40.82756 | -80.21404 | 34918 ft | 525 kts | 133° |
| 2026-05-07 21:35 | 40.80879 | -80.17210 | 34923 ft | 536 kts | 123° |
| 2026-05-07 21:35 | 40.79262 | -80.12778 | 34940 ft | 538 kts | 122° |
| 2026-05-07 21:36 | 40.76117 | -80.03773 | 34923 ft | 539 kts | 122° |
| 2026-05-07 21:36 | 40.72944 | -79.94794 | 34908 ft | 539 kts | 122° |
| 2026-05-07 21:37 | 40.69714 | -79.85874 | 34905 ft | 539 kts | 123° |
| 2026-05-07 21:37 | 40.66481 | -79.77043 | 34908 ft | 538 kts | 123° |
| 2026-05-07 21:38 | 40.63228 | -79.68188 | 34902 ft | 536 kts | 123° |
| 2026-05-07 21:38 | 40.59988 | -79.59367 | 34900 ft | 535 kts | 123° |
| 2026-05-07 21:39 | 40.56750 | -79.50576 | 34907 ft | 534 kts | 123° |
| 2026-05-07 21:39 | 40.53503 | -79.41797 | 34909 ft | 533 kts | 123° |
| 2026-05-07 21:40 | 40.50254 | -79.33041 | 34890 ft | 533 kts | 123° |
| 2026-05-07 21:40 | 40.47001 | -79.24292 | 34892 ft | 533 kts | 123° |
| 2026-05-07 21:41 | 40.43762 | -79.15608 | 34911 ft | 532 kts | 124° |
| 2026-05-07 21:41 | 40.40503 | -79.06896 | 34902 ft | 532 kts | 124° |
| 2026-05-07 21:42 | 40.37239 | -78.98195 | 34902 ft | 532 kts | 124° |
| 2026-05-07 21:42 | 40.33972 | -78.89512 | 34892 ft | 530 kts | 124° |
| 2026-05-07 21:43 | 40.31479 | -78.80325 | 34318 ft | 554 kts | 98° |
| 2026-05-07 21:43 | 40.31412 | -78.75244 | 33729 ft | 555 kts | 91° |
| 2026-05-07 21:43 | 40.31494 | -78.70168 | 32927 ft | 559 kts | 91° |
| 2026-05-07 21:44 | 40.31580 | -78.65124 | 32213 ft | 561 kts | 91° |
| 2026-05-07 21:44 | 40.31630 | -78.60008 | 31498 ft | 562 kts | 92° |
| 2026-05-07 21:44 | 40.31640 | -78.54898 | 30949 ft | 558 kts | 93° |
| 2026-05-07 21:44 | 40.31622 | -78.49835 | 30436 ft | 553 kts | 94° |
| 2026-05-07 21:45 | 40.31594 | -78.44815 | 29922 ft | 548 kts | 94° |
| 2026-05-07 21:45 | 40.31567 | -78.39828 | 29420 ft | 543 kts | 94° |
| 2026-05-07 21:45 | 40.31543 | -78.34905 | 28907 ft | 538 kts | 93° |
| 2026-05-07 21:45 | 40.31520 | -78.30028 | 28414 ft | 533 kts | 93° |
| 2026-05-07 21:46 | 40.31495 | -78.25197 | 27927 ft | 528 kts | 94° |
| 2026-05-07 21:46 | 40.31468 | -78.20407 | 27401 ft | 523 kts | 94° |
| 2026-05-07 21:46 | 40.31438 | -78.15649 | 26895 ft | 519 kts | 94° |
| 2026-05-07 21:46 | 40.31407 | -78.11010 | 26399 ft | 514 kts | 94° |
| 2026-05-07 21:47 | 40.31373 | -78.06336 | 25889 ft | 510 kts | 94° |
| 2026-05-07 21:47 | 40.31339 | -78.01699 | 25387 ft | 506 kts | 94° |
| 2026-05-07 21:47 | 40.31303 | -77.97116 | 24892 ft | 501 kts | 93° |
| 2026-05-07 21:47 | 40.31267 | -77.92577 | 24573 ft | 492 kts | 93° |
| 2026-05-07 21:48 | 40.31229 | -77.88127 | 24304 ft | 483 kts | 93° |
| 2026-05-07 21:48 | 40.31190 | -77.83751 | 24036 ft | 478 kts | 94° |
| 2026-05-07 21:48 | 40.31148 | -77.79409 | 23763 ft | 475 kts | 94° |
| 2026-05-07 21:48 | 40.31105 | -77.75092 | 23511 ft | 473 kts | 94° |
| 2026-05-07 21:49 | 40.31061 | -77.70794 | 23246 ft | 471 kts | 94° |
| 2026-05-07 21:49 | 40.31015 | -77.66508 | 22981 ft | 469 kts | 94° |
| 2026-05-07 21:49 | 40.30968 | -77.62247 | 22711 ft | 468 kts | 94° |
| 2026-05-07 21:49 | 40.30920 | -77.57989 | 22450 ft | 466 kts | 94° |
| 2026-05-07 21:50 | 40.30872 | -77.53750 | 22184 ft | 464 kts | 94° |
| 2026-05-07 21:50 | 40.30823 | -77.49589 | 21929 ft | 463 kts | 94° |
| 2026-05-07 21:50 | 40.30770 | -77.45364 | 21663 ft | 461 kts | 94° |
| 2026-05-07 21:50 | 40.30717 | -77.41163 | 21386 ft | 460 kts | 94° |
| 2026-05-07 21:51 | 40.30665 | -77.36982 | 21148 ft | 458 kts | 94° |
| 2026-05-07 21:51 | 40.30608 | -77.32805 | 20876 ft | 457 kts | 94° |
| 2026-05-07 21:51 | 40.30550 | -77.28659 | 20634 ft | 455 kts | 95° |
| 2026-05-07 21:51 | 40.30491 | -77.24563 | 20358 ft | 453 kts | 95° |
| 2026-05-07 21:52 | 40.30430 | -77.20400 | 20105 ft | 450 kts | 95° |
| 2026-05-07 21:52 | 40.30369 | -77.16313 | 19852 ft | 448 kts | 95° |
| 2026-05-07 21:52 | 40.30309 | -77.12292 | 19614 ft | 445 kts | 95° |
| 2026-05-07 21:52 | 40.30242 | -77.08243 | 19354 ft | 444 kts | 96° |
| 2026-05-07 21:53 | 40.29777 | -77.04306 | 19092 ft | 433 kts | 111° |
| 2026-05-07 21:53 | 40.28919 | -77.00567 | 18879 ft | 425 kts | 114° |
| 2026-05-07 21:53 | 40.28027 | -76.96895 | 18528 ft | 421 kts | 114° |
| 2026-05-07 21:53 | 40.27132 | -76.93246 | 18076 ft | 419 kts | 114° |
| 2026-05-07 21:54 | 40.26253 | -76.89620 | 17634 ft | 418 kts | 114° |
| 2026-05-07 21:54 | 40.25389 | -76.85999 | 17210 ft | 415 kts | 113° |
| 2026-05-07 21:54 | 40.24540 | -76.82396 | 16783 ft | 413 kts | 113° |
| 2026-05-07 21:54 | 40.23703 | -76.78817 | 16398 ft | 409 kts | 112° |
| 2026-05-07 21:55 | 40.22874 | -76.75263 | 16013 ft | 406 kts | 112° |
| 2026-05-07 21:55 | 40.22053 | -76.71747 | 15604 ft | 403 kts | 112° |
| 2026-05-07 21:55 | 40.21234 | -76.68244 | 15225 ft | 400 kts | 112° |
| 2026-05-07 21:55 | 40.20425 | -76.64787 | 14923 ft | 396 kts | 112° |
| 2026-05-07 21:56 | 40.19619 | -76.61353 | 14645 ft | 394 kts | 112° |
| 2026-05-07 21:56 | 40.18830 | -76.57992 | 14376 ft | 391 kts | 112° |
| 2026-05-07 21:56 | 40.18021 | -76.54557 | 14102 ft | 388 kts | 112° |
| 2026-05-07 21:56 | 40.17233 | -76.51222 | 13846 ft | 390 kts | 112° |
| 2026-05-07 21:57 | 40.16428 | -76.47820 | 13591 ft | 392 kts | 112° |
| 2026-05-07 21:57 | 40.15624 | -76.44417 | 13315 ft | 391 kts | 112° |
| 2026-05-07 21:57 | 40.14824 | -76.41031 | 13033 ft | 388 kts | 111° |
| 2026-05-07 21:57 | 40.14026 | -76.37662 | 12775 ft | 387 kts | 111° |
| 2026-05-07 21:58 | 40.13231 | -76.34316 | 12508 ft | 385 kts | 111° |
| 2026-05-07 21:58 | 40.12446 | -76.31020 | 12252 ft | 383 kts | 111° |
| 2026-05-07 21:58 | 40.11778 | -76.27661 | 11968 ft | 384 kts | 101° |
| 2026-05-07 21:58 | 40.11495 | -76.24193 | 11740 ft | 383 kts | 97° |
| 2026-05-07 21:59 | 40.11307 | -76.20714 | 11464 ft | 382 kts | 96° |
| 2026-05-07 21:59 | 40.11128 | -76.17264 | 11211 ft | 379 kts | 96° |
| 2026-05-07 21:59 | 40.10936 | -76.13893 | 10931 ft | 365 kts | 96° |
| 2026-05-07 21:59 | 40.10733 | -76.10655 | 10686 ft | 348 kts | 96° |
| 2026-05-07 22:00 | 40.10525 | -76.07558 | 10436 ft | 335 kts | 96° |
| 2026-05-07 22:00 | 40.10321 | -76.04592 | 10213 ft | 321 kts | 96° |
| 2026-05-07 22:00 | 40.10125 | -76.01736 | 10000 ft | 309 kts | 96° |
| 2026-05-07 22:00 | 40.09933 | -75.98985 | 9801 ft | 300 kts | 95° |
| 2026-05-07 22:01 | 40.09744 | -75.96303 | 9617 ft | 300 kts | 95° |
| 2026-05-07 22:01 | 40.09553 | -75.93597 | 9420 ft | 297 kts | 95° |
| 2026-05-07 22:01 | 40.09365 | -75.90923 | 9223 ft | 294 kts | 95° |
| 2026-05-07 22:01 | 40.09178 | -75.88273 | 9035 ft | 291 kts | 94° |
| 2026-05-07 22:02 | 40.08993 | -75.85661 | 8817 ft | 287 kts | 94° |
| 2026-05-07 22:02 | 40.08811 | -75.83091 | 8620 ft | 282 kts | 94° |
| 2026-05-07 22:02 | 40.08629 | -75.80551 | 8430 ft | 279 kts | 94° |
| 2026-05-07 22:02 | 40.08451 | -75.78022 | 8248 ft | 280 kts | 93° |
| 2026-05-07 22:03 | 40.08277 | -75.75483 | 8053 ft | 280 kts | 94° |
| 2026-05-07 22:03 | 40.08119 | -75.72994 | 7946 ft | 277 kts | 92° |
| 2026-05-07 22:03 | 40.08000 | -75.70503 | 7847 ft | 274 kts | 92° |
| 2026-05-07 22:03 | 40.07894 | -75.68023 | 7754 ft | 273 kts | 92° |
| 2026-05-07 22:04 | 40.07781 | -75.65533 | 7667 ft | 276 kts | 91° |
| 2026-05-07 22:04 | 40.07692 | -75.63006 | 7577 ft | 281 kts | 92° |
| 2026-05-07 22:04 | 40.07571 | -75.60464 | 7478 ft | 280 kts | 92° |
| 2026-05-07 22:04 | 40.07446 | -75.57932 | 7396 ft | 278 kts | 92° |
| 2026-05-07 22:05 | 40.07319 | -75.55407 | 7281 ft | 279 kts | 92° |
| 2026-05-07 22:05 | 40.07194 | -75.52882 | 7193 ft | 278 kts | 92° |
| 2026-05-07 22:05 | 40.07073 | -75.50362 | 7091 ft | 278 kts | 92° |
| 2026-05-07 22:05 | 40.06952 | -75.47854 | 6999 ft | 276 kts | 92° |
| 2026-05-07 22:06 | 40.06831 | -75.45351 | 6917 ft | 275 kts | 92° |
| 2026-05-07 22:06 | 40.06708 | -75.42854 | 6810 ft | 275 kts | 92° |
| 2026-05-07 22:06 | 40.06584 | -75.40362 | 6715 ft | 275 kts | 92° |
| 2026-05-07 22:06 | 40.06461 | -75.37874 | 6619 ft | 274 kts | 92° |
| 2026-05-07 22:07 | 40.06337 | -75.35392 | 6514 ft | 274 kts | 92° |
| 2026-05-07 22:07 | 40.06215 | -75.32940 | 6416 ft | 273 kts | 92° |
| 2026-05-07 22:07 | 40.06091 | -75.30468 | 6316 ft | 273 kts | 92° |
| 2026-05-07 22:07 | 40.05964 | -75.27998 | 6227 ft | 273 kts | 92° |
| 2026-05-07 22:08 | 40.05841 | -75.25523 | 6130 ft | 272 kts | 92° |
| 2026-05-07 22:08 | 40.05648 | -75.23072 | 6023 ft | 273 kts | 104° |
| 2026-05-07 22:08 | 40.04752 | -75.20912 | 5909 ft | 274 kts | 135° |
| 2026-05-07 22:08 | 40.03186 | -75.19563 | 5703 ft | 270 kts | 161° |
| 2026-05-07 22:09 | 40.01392 | -75.18857 | 5396 ft | 270 kts | 166° |
| 2026-05-07 22:09 | 39.99642 | -75.17982 | 5083 ft | 272 kts | 144° |
| 2026-05-07 22:09 | 39.98428 | -75.16140 | 4823 ft | 270 kts | 113° |
| 2026-05-07 22:09 | 39.98073 | -75.13785 | 4563 ft | 264 kts | 85° |
| 2026-05-07 22:10 | 39.98413 | -75.11455 | 4275 ft | 261 kts | 72° |
| 2026-05-07 22:10 | 39.98910 | -75.09185 | 4014 ft | 260 kts | 71° |
| 2026-05-07 22:10 | 39.99424 | -75.06928 | 3792 ft | 259 kts | 71° |
| 2026-05-07 22:10 | 39.99934 | -75.04684 | 3589 ft | 257 kts | 71° |
| 2026-05-07 22:11 | 40.00440 | -75.02442 | 3540 ft | 259 kts | 71° |
| 2026-05-07 22:11 | 40.00949 | -75.00154 | 3494 ft | 264 kts | 72° |
| 2026-05-07 22:11 | 40.01451 | -74.97900 | 3508 ft | 262 kts | 73° |
| 2026-05-07 22:11 | 40.01498 | -74.95533 | 3504 ft | 258 kts | 107° |
| 2026-05-07 22:12 | 40.00565 | -74.93706 | 3498 ft | 242 kts | 144° |
| 2026-05-07 22:12 | 39.99051 | -74.93034 | 3484 ft | 228 kts | 185° |
| 2026-05-07 22:12 | 39.97519 | -74.93465 | 3508 ft | 227 kts | 198° |
| 2026-05-07 22:12 | 39.95987 | -74.94025 | 3505 ft | 229 kts | 198° |
| 2026-05-07 22:13 | 39.94450 | -74.94602 | 3506 ft | 230 kts | 201° |
| 2026-05-07 22:13 | 39.93193 | -74.95796 | 3501 ft | 223 kts | 240° |
| 2026-05-07 22:13 | 39.92580 | -74.97633 | 3505 ft | 221 kts | 252° |
| 2026-05-07 22:13 | 39.92093 | -74.99534 | 3476 ft | 222 kts | 256° |
| 2026-05-07 22:14 | 39.91675 | -75.01495 | 3181 ft | 224 kts | 257° |
| 2026-05-07 22:14 | 39.91287 | -75.03431 | 2900 ft | 217 kts | 257° |
| 2026-05-07 22:14 | 39.90919 | -75.05280 | 2628 ft | 204 kts | 257° |
| 2026-05-07 22:14 | 39.90574 | -75.07003 | 2358 ft | 192 kts | 258° |
| 2026-05-07 22:15 | 39.90248 | -75.08633 | 2101 ft | 181 kts | 258° |
| 2026-05-07 22:15 | 39.89939 | -75.10169 | 1863 ft | 170 kts | 258° |
| 2026-05-07 22:15 | 39.89654 | -75.11594 | 1682 ft | 159 kts | 258° |
| 2026-05-07 22:15 | 39.89376 | -75.12986 | 1459 ft | 158 kts | 258° |
| 2026-05-07 22:16 | 39.89104 | -75.14351 | 1249 ft | 153 kts | 258° |
| 2026-05-07 22:16 | 39.88840 | -75.15670 | 1095 ft | 150 kts | 258° |
| 2026-05-07 22:16 | 39.88564 | -75.16983 | 891 ft | 151 kts | 258° |
| 2026-05-07 22:16 | 39.88305 | -75.18316 | 697 ft | 152 kts | 259° |
| 2026-05-07 22:17 | 39.88047 | -75.19654 | 487 ft | 154 kts | 258° |
| 2026-05-07 22:17 | 39.87773 | -75.21001 | 283 ft | 156 kts | 258° |
| 2026-05-07 22:17 | 39.87504 | -75.22375 | 59 ft | 155 kts | 258° |
| 2026-05-07 22:17 | 39.87257 | -75.23624 | 25 ft | 117 kts | 255° |
| 2026-05-07 22:18 | 39.87107 | -75.24371 | 27 ft | 54 kts | 256° |
| 2026-05-07 22:18 | 39.87083 | -75.24821 | 24 ft | 10 kts | 336° |
| 2026-05-07 22:18 | 39.87096 | -75.24827 | 24 ft | 0 kts | 340° |
| 2026-05-07 22:19 | 39.87115 | -75.24823 | 24 ft | 8 kts | 22° |
| 2026-05-07 22:19 | 39.87151 | -75.24726 | 24 ft | 16 kts | 76° |
| 2026-05-07 22:19 | 39.87171 | -75.24622 | 24 ft | 20 kts | 75° |
| 2026-05-07 22:20 | 39.87210 | -75.24425 | 24 ft | 25 kts | 75° |
| 2026-05-07 22:20 | 39.87255 | -75.24202 | 24 ft | 25 kts | 75° |
| 2026-05-07 22:20 | 39.87297 | -75.23990 | 24 ft | 23 kts | 76° |
| 2026-05-07 22:20 | 39.87329 | -75.23831 | 24 ft | 16 kts | 75° |
| 2026-05-07 22:21 | 39.87367 | -75.23723 | 24 ft | 10 kts | 24° |
| 2026-05-07 22:21 | 39.87397 | -75.23721 | 24 ft | 2 kts | 349° |
| 2026-05-07 22:21 | 39.87414 | -75.23725 | 24 ft | 3 kts | 356° |
| 2026-05-07 22:21 | 39.87446 | -75.23708 | 24 ft | 9 kts | 35° |
| 2026-05-07 22:22 | 39.87508 | -75.23631 | 24 ft | 15 kts | 44° |
| 2026-05-07 22:22 | 39.87598 | -75.23565 | 24 ft | 15 kts | 20° |
| 2026-05-07 22:22 | 39.87678 | -75.23593 | 24 ft | 6 kts | 333° |
| 2026-05-07 22:22 | 39.87709 | -75.23613 | 24 ft | 3 kts | 334° |
| 2026-05-07 22:23 | 39.87714 | -75.23617 | 24 ft | 0 kts | 334° |
| 2026-05-07 22:34 | 39.87714 | -75.23616 | 24 ft | 0 kts | 334° |